الصفحة الرئيسية
METAR-TAF:

METAR-TAF

مطار :

هانوي, فيتنام

دائرة عرض: 21-01N, خط طول: 105-48E, ارتفاع: 6 متر

مراقبة الطقس الحالي

تاريخ ووقت الإصدار 26 دقيقة قبل الساعة 06:30UTC
ريح 10 عقدة من الجنوب الشرقي
درجة الحرارة 30°درجة مئوية
الرطوبة 70%
ضغط 1008 hPa
الرؤية 10 كم أو أكثر
غيوم قليلة على ارتفاع 2100 قدم
غيوم متفرقة على ارتفاع 2500 قدم
غيوم مفككة على ارتفاع 3000 قدم

METAR: VVNB 130630Z 14010KT 9999 FEW021 SCT025 BKN030 30/24 Q1008 NOSIG

زمن: 13:56 (06:56 UTC)

توقعات

تاريخ ووقت الإصدار 1ساعة و 56 دقيقة قبل الساعة 05:00UTC
التوقعات صالحة من13 الساعة 06 UTC إلى 14 الساعة 06 UTC
ريح 8 عقدة من الجنوب الشرقي
الرؤية: 9000 متر
غيوم متفرقة على ارتفاع 2000 قدم
أصبح
من 13 الساعة 21 UTC إلى 13 الساعة 22 UTC
الرؤية: 4500 متر
غشاء
أصبح
من 14 الساعة 01 UTC إلى 14 الساعة 02 UTC
الرؤية: 6000 متر

TAF: VVNB 130500Z 1306/1406 14008KT 9000 SCT020 BECMG 1321/1322 4500 BR BECMG 1401/1402 6000 NSW

أرصاد الطقس والتوقعات من أكثر من 4000 مطار (تقارير الطقس للمطار METAR والتنبؤ بالطقس بالمطارTAF).

المحطات المتاحة هي النقط الصفراء والحمراء على الخريطة.

حرك المؤشر فوق النقطة لمعرفة اسم المحطة.

ثم انقر لمعرفة أرصاد وتوقعات الطقس.

لتغيير الخارطة: اضغط على الأزرار الخضراء مع رمز الصليب الأسود للتكبير. على الزر الأخضر مع شرطة للتصغير، أو على الأسهم الخضراء للخرائط المجاورة.


METAR-TAF: